Time;durP1;ratioP1;P1;durP2;ratioP2;P2;SDS_P1;SDS_P2;PMS_P1;PMS_P2;Temp;Humidity;BMP_temperature;BMP_pressure;BME280_temperature;BME280_humidity;BME280_pressure;Samples;Min_cycle;Max_cycle;Signal;HPM_P1;HPM_P2
2021/05/26 00:00:58;;;;;;;1.20;1.10;;;8.30;99.90;;;;;;5059833;28;20204;-65
2021/05/26 00:03:26;;;;;;;1.30;1.20;;;8.20;99.90;;;;;;5059883;28;20557;-65
2021/05/26 00:05:53;;;;;;;1.90;1.33;;;8.20;99.90;;;;;;5057278;28;20235;-65
2021/05/26 00:08:30;;;;;;;1.45;1.35;;;8.20;99.90;;;;;;5059658;28;20235;-66
2021/05/26 00:10:59;;;;;;;1.50;1.40;;;8.20;99.90;;;;;;5059541;28;20445;-67
2021/05/26 00:13:26;;;;;;;1.63;1.52;;;8.30;99.90;;;;;;5059318;28;20245;-66
2021/05/26 00:15:54;;;;;;;0.93;0.93;;;8.20;99.90;;;;;;5059401;28;20242;-67
2021/05/26 00:18:22;;;;;;;1.40;1.30;;;8.20;99.90;;;;;;5060086;28;20214;-65
2021/05/26 00:20:52;;;;;;;2.13;1.55;;;8.20;99.90;;;;;;5058271;28;20207;-66
2021/05/26 00:23:21;;;;;;;3.35;1.98;;;8.10;99.90;;;;;;5090589;28;20196;-66
2021/05/26 00:25:48;;;;;;;1.65;1.55;;;8.10;99.90;;;;;;5059162;28;20214;-64
2021/05/26 00:28:16;;;;;;;1.38;1.25;;;8.10;99.90;;;;;;5063302;28;20396;-67
2021/05/26 00:30:52;;;;;;;2.65;1.70;;;8.20;99.90;;;;;;5060256;28;20245;-65
2021/05/26 00:33:20;;;;;;;1.58;1.48;;;8.20;99.90;;;;;;5058044;28;20226;-65
2021/05/26 00:35:47;;;;;;;1.35;1.25;;;8.10;99.90;;;;;;5059359;28;20208;-66
2021/05/26 00:38:16;;;;;;;1.67;1.58;;;8.20;99.90;;;;;;5058258;28;20383;-65
2021/05/26 00:40:43;;;;;;;2.42;1.30;;;8.10;99.90;;;;;;5059977;28;20238;-66
2021/05/26 00:43:11;;;;;;;1.40;1.30;;;8.20;99.90;;;;;;5060507;28;20225;-66
2021/05/26 00:45:38;;;;;;;1.80;1.70;;;8.20;99.90;;;;;;5057962;28;20241;-65
2021/05/26 00:48:06;;;;;;;3.35;1.67;;;8.30;99.90;;;;;;5059681;28;20235;-66
2021/05/26 00:50:35;;;;;;;1.60;1.50;;;8.30;99.90;;;;;;5057377;28;20204;-67
2021/05/26 00:53:05;;;;;;;2.50;1.63;;;8.30;99.90;;;;;;5057275;28;20211;-65
2021/05/26 00:55:33;;;;;;;3.83;1.40;;;8.40;99.90;;;;;;5056014;28;20208;-67
2021/05/26 00:58:01;;;;;;;1.60;1.42;;;8.40;99.90;;;;;;5059743;28;20215;-65
2021/05/26 01:00:30;;;;;;;1.35;1.25;;;8.50;99.90;;;;;;5057779;28;20255;-66
2021/05/26 01:02:58;;;;;;;3.90;1.75;;;8.50;99.90;;;;;;5060950;28;20371;-65
2021/05/26 01:05:26;;;;;;;6.03;1.90;;;8.60;99.90;;;;;;5058603;28;20215;-66
2021/05/26 01:07:53;;;;;;;2.28;1.67;;;8.90;99.90;;;;;;5059873;28;20241;-66
2021/05/26 01:10:22;;;;;;;1.42;1.33;;;8.70;99.90;;;;;;5058718;28;20211;-70
2021/05/26 01:12:50;;;;;;;1.40;1.30;;;8.90;99.90;;;;;;5050822;28;20207;-66
2021/05/26 01:15:18;;;;;;;1.88;1.58;;;8.80;99.90;;;;;;5058673;28;20208;-67
2021/05/26 01:17:45;;;;;;;1.50;1.40;;;8.70;99.90;;;;;;5059381;28;20213;-66
2021/05/26 01:20:20;;;;;;;3.53;1.60;;;8.70;99.90;;;;;;5056784;28;20490;-66
2021/05/26 01:22:48;;;;;;;1.30;1.23;;;8.70;99.90;;;;;;5057887;28;20210;-65
2021/05/26 01:25:15;;;;;;;1.45;1.25;;;8.60;99.90;;;;;;5058452;28;20211;-65
2021/05/26 01:27:42;;;;;;;1.17;1.10;;;8.40;99.90;;;;;;5059238;28;20227;-66
2021/05/26 01:30:10;;;;;;;3.22;1.52;;;8.40;99.90;;;;;;5058854;28;20207;-65
2021/05/26 01:32:42;;;;;;;4.90;1.60;;;8.40;99.90;;;;;;5053656;28;20558;-66
2021/05/26 01:35:12;;;;;;;1.63;1.23;;;8.40;99.90;;;;;;5058960;28;20302;-67
2021/05/26 01:37:45;;;;;;;1.40;1.30;;;8.30;99.90;;;;;;5053652;28;20287;-64
2021/05/26 01:40:16;;;;;;;1.33;1.25;;;8.20;99.90;;;;;;5055330;28;20208;-67
2021/05/26 01:42:45;;;;;;;4.97;1.88;;;8.20;99.90;;;;;;5055275;28;20550;-67
2021/05/26 01:45:14;;;;;;;1.40;1.30;;;8.10;99.90;;;;;;5053705;28;20208;-66
2021/05/26 01:47:41;;;;;;;2.15;1.95;;;8.00;99.90;;;;;;5054016;28;20227;-65
2021/05/26 01:50:19;;;;;;;2.53;1.55;;;7.90;99.90;;;;;;5057853;28;20208;-66
2021/05/26 01:52:58;;;;;;;1.90;1.38;;;7.80;99.90;;;;;;5049473;28;20208;-65
2021/05/26 01:55:25;;;;;;;2.10;1.95;;;7.80;99.90;;;;;;5040158;28;20209;-65
2021/05/26 01:57:52;;;;;;;2.05;1.88;;;8.00;99.90;;;;;;5058672;28;20211;-66
2021/05/26 02:00:20;;;;;;;3.17;1.45;;;8.10;99.90;;;;;;5042356;28;20224;-66
2021/05/26 02:02:48;;;;;;;1.35;1.25;;;8.20;99.90;;;;;;5038324;28;20247;-66
2021/05/26 02:05:16;;;;;;;1.50;1.40;;;8.30;99.90;;;;;;5052559;28;20208;-66
2021/05/26 02:07:44;;;;;;;1.65;1.50;;;8.40;99.90;;;;;;5043667;28;20306;-65
2021/05/26 02:10:14;;;;;;;1.52;1.40;;;8.20;99.90;;;;;;5057816;28;20506;-66
2021/05/26 02:12:42;;;;;;;2.92;2.20;;;8.20;99.90;;;;;;5056857;28;20579;-65
2021/05/26 02:15:13;;;;;;;6.55;2.20;;;8.10;99.90;;;;;;5046458;28;20206;-65
2021/05/26 02:17:40;;;;;;;7.63;2.10;;;8.10;99.90;;;;;;5055836;28;20225;-64
2021/05/26 02:20:11;;;;;;;3.08;1.95;;;8.30;99.90;;;;;;5046564;28;20208;-65
2021/05/26 02:22:38;;;;;;;1.75;1.65;;;8.40;99.90;;;;;;5047416;28;20214;-65
2021/05/26 02:25:06;;;;;;;4.03;2.15;;;8.40;99.90;;;;;;5057282;28;20212;-66
2021/05/26 02:27:34;;;;;;;4.35;2.03;;;8.50;99.90;;;;;;5057540;28;20611;-66
2021/05/26 02:30:01;;;;;;;4.85;2.20;;;8.60;99.90;;;;;;5059173;28;20257;-66
2021/05/26 02:32:28;;;;;;;1.83;1.73;;;8.60;99.90;;;;;;5052167;28;20228;-66
2021/05/26 02:35:00;;;;;;;1.83;1.73;;;8.60;99.90;;;;;;5044986;28;20234;-66
2021/05/26 02:37:27;;;;;;;1.92;1.75;;;8.50;99.90;;;;;;5055619;28;20226;-66
2021/05/26 02:39:54;;;;;;;2.30;1.98;;;8.50;99.90;;;;;;5040287;28;20573;-66
2021/05/26 02:42:21;;;;;;;4.28;2.10;;;8.60;99.90;;;;;;5049966;28;20258;-65
2021/05/26 02:44:48;;;;;;;18.80;2.50;;;8.60;99.90;;;;;;5057746;28;20208;-65
2021/05/26 02:47:15;;;;;;;2.10;1.88;;;8.60;99.90;;;;;;5057623;28;20203;-65
2021/05/26 02:49:43;;;;;;;3.08;2.30;;;8.80;99.90;;;;;;5058087;28;20311;-64
2021/05/26 02:52:10;;;;;;;4.53;1.52;;;8.90;99.90;;;;;;5054056;28;20213;-65
2021/05/26 02:54:37;;;;;;;3.20;1.42;;;8.90;99.90;;;;;;5046233;28;20235;-64
2021/05/26 02:57:04;;;;;;;1.98;1.58;;;9.00;99.90;;;;;;5056628;28;20508;-65
2021/05/26 02:59:31;;;;;;;2.55;2.33;;;9.00;99.90;;;;;;5057554;28;20223;-65
2021/05/26 03:01:58;;;;;;;2.75;2.33;;;9.00;99.90;;;;;;5056409;28;20209;-65
2021/05/26 03:04:25;;;;;;;2.53;2.08;;;9.00;99.90;;;;;;5057367;28;20266;-65
2021/05/26 03:06:52;;;;;;;5.88;2.30;;;9.00;99.90;;;;;;5051523;28;20449;-66
2021/05/26 03:09:19;;;;;;;2.33;1.88;;;9.00;99.90;;;;;;5053370;28;20643;-65
2021/05/26 03:11:46;;;;;;;2.20;1.55;;;9.00;99.90;;;;;;5052717;28;20209;-65
2021/05/26 03:14:13;;;;;;;1.83;1.73;;;9.10;99.90;;;;;;5052891;28;20708;-65
2021/05/26 03:16:41;;;;;;;4.07;1.83;;;9.00;99.90;;;;;;5055269;28;20207;-65
2021/05/26 03:19:08;;;;;;;1.60;1.50;;;8.90;99.90;;;;;;5057810;28;20211;-65
2021/05/26 03:21:35;;;;;;;1.88;1.42;;;8.80;99.90;;;;;;5055376;28;20248;-65
2021/05/26 03:24:03;;;;;;;2.22;2.03;;;8.80;99.90;;;;;;5057524;28;20217;-67
2021/05/26 03:26:30;;;;;;;2.08;1.60;;;8.90;99.90;;;;;;5056068;28;20220;-66
2021/05/26 03:28:57;;;;;;;16.52;2.70;;;9.00;99.90;;;;;;5057662;28;20236;-66
2021/05/26 03:31:24;;;;;;;2.10;2.00;;;9.20;99.90;;;;;;5056236;28;20328;-66
2021/05/26 03:33:51;;;;;;;4.93;1.95;;;9.30;99.90;;;;;;5048886;28;20397;-66
2021/05/26 03:36:18;;;;;;;2.10;1.85;;;9.60;99.90;;;;;;5052450;28;20215;-66
2021/05/26 03:38:45;;;;;;;1.73;1.33;;;9.60;99.90;;;;;;5056463;28;20667;-65
2021/05/26 03:41:12;;;;;;;1.88;1.75;;;9.70;99.90;;;;;;5056345;28;20244;-65
2021/05/26 03:43:39;;;;;;;2.33;2.20;;;9.70;99.90;;;;;;5056349;28;20558;-66
2021/05/26 03:46:06;;;;;;;1.88;1.75;;;9.80;99.90;;;;;;5058092;28;20205;-65
2021/05/26 03:48:33;;;;;;;1.40;1.30;;;9.80;99.90;;;;;;5053384;28;20241;-64
2021/05/26 03:51:00;;;;;;;1.42;1.33;;;9.80;99.90;;;;;;5043274;28;20208;-64
2021/05/26 03:53:27;;;;;;;1.40;1.30;;;9.70;99.90;;;;;;5058298;28;20208;-66
2021/05/26 03:55:54;;;;;;;3.25;1.50;;;9.60;99.90;;;;;;5057401;28;20211;-67
2021/05/26 03:58:21;;;;;;;3.60;1.10;;;9.70;99.90;;;;;;5056825;28;20220;-65
2021/05/26 04:00:48;;;;;;;1.63;1.45;;;9.80;99.90;;;;;;5053389;28;20373;-70
2021/05/26 04:03:15;;;;;;;1.52;1.42;;;9.70;99.90;;;;;;5053820;28;20256;-66
2021/05/26 04:05:43;;;;;;;1.92;1.30;;;9.80;99.90;;;;;;5043508;28;20228;-66
2021/05/26 04:08:12;;;;;;;3.28;1.73;;;9.90;99.90;;;;;;5059017;28;20229;-66
2021/05/26 04:10:39;;;;;;;3.20;1.70;;;9.80;99.90;;;;;;5059789;28;20449;-65
2021/05/26 04:13:06;;;;;;;3.58;1.70;;;9.90;99.90;;;;;;5060469;28;20301;-66
2021/05/26 04:15:33;;;;;;;5.90;2.03;;;10.10;99.90;;;;;;5049717;28;20210;-66
2021/05/26 04:18:05;;;;;;;5.68;1.75;;;10.00;99.90;;;;;;5048173;28;20512;-66
2021/05/26 04:20:33;;;;;;;5.78;1.65;;;10.00;99.90;;;;;;5060250;28;20508;-66
2021/05/26 04:23:00;;;;;;;2.20;1.50;;;10.10;99.90;;;;;;5056306;28;20392;-65
2021/05/26 04:25:28;;;;;;;1.88;1.50;;;10.40;99.90;;;;;;5060317;28;20625;-66
2021/05/26 04:27:55;;;;;;;1.70;1.35;;;10.40;99.90;;;;;;5058307;28;20366;-65
2021/05/26 04:30:22;;;;;;;2.35;1.60;;;10.50;99.90;;;;;;5051010;28;20210;-65
2021/05/26 04:32:49;;;;;;;4.30;1.80;;;10.50;99.90;;;;;;5059180;28;20233;-65
2021/05/26 04:35:17;;;;;;;1.70;1.58;;;10.40;99.90;;;;;;5060030;28;20245;-66
2021/05/26 04:37:46;;;;;;;1.65;1.50;;;10.50;99.90;;;;;;5060459;28;20276;-65
2021/05/26 04:40:13;;;;;;;3.88;1.77;;;10.70;99.90;;;;;;5049363;28;20213;-67
2021/05/26 04:42:40;;;;;;;1.88;1.52;;;10.90;99.90;;;;;;5049321;28;20575;-66
2021/05/26 04:45:08;;;;;;;3.00;2.10;;;11.30;99.90;;;;;;5056003;28;20207;-65
2021/05/26 04:47:35;;;;;;;3.25;2.50;;;11.90;99.90;;;;;;5051836;28;20222;-66
2021/05/26 04:50:03;;;;;;;3.17;1.95;;;12.30;99.80;;;;;;5055166;28;20226;-66
2021/05/26 04:52:30;;;;;;;1.52;1.40;;;12.80;99.40;;;;;;5058383;28;20200;-66
2021/05/26 04:54:58;;;;;;;3.72;1.70;;;13.00;98.80;;;;;;5059304;28;20390;-66
2021/05/26 04:57:25;;;;;;;1.83;1.73;;;12.90;98.70;;;;;;5054432;28;20208;-66
2021/05/26 04:59:52;;;;;;;3.75;2.15;;;12.70;99.40;;;;;;5052059;28;20579;-66
2021/05/26 05:02:19;;;;;;;2.60;1.92;;;12.70;99.10;;;;;;5046645;28;20549;-66
2021/05/26 05:04:46;;;;;;;3.72;3.17;;;12.80;99.20;;;;;;5050832;28;20208;-66
2021/05/26 05:07:13;;;;;;;5.00;2.03;;;12.90;99.00;;;;;;5056023;28;20211;-66
2021/05/26 05:09:40;;;;;;;2.38;2.15;;;13.10;97.90;;;;;;5058945;28;20231;-66
2021/05/26 05:12:07;;;;;;;4.72;1.90;;;13.40;97.70;;;;;;5059163;28;20219;-66
2021/05/26 05:14:34;;;;;;;2.55;2.35;;;13.50;97.50;;;;;;5052648;28;20234;-66
2021/05/26 05:17:02;;;;;;;2.85;2.65;;;13.60;97.10;;;;;;5058391;28;20603;-66
2021/05/26 05:19:29;;;;;;;4.03;3.72;;;13.70;96.80;;;;;;5058289;28;20522;-66
2021/05/26 05:21:56;;;;;;;7.60;4.75;;;13.80;97.00;;;;;;5058217;28;20242;-66
2021/05/26 05:24:23;;;;;;;11.95;4.75;;;14.10;96.50;;;;;;5059349;28;20203;-66
2021/05/26 05:26:50;;;;;;;2.92;2.63;;;14.50;95.90;;;;;;5056455;28;20219;-66
2021/05/26 05:29:17;;;;;;;2.88;2.67;;;14.80;95.10;;;;;;5058398;28;20239;-66
2021/05/26 05:31:44;;;;;;;3.65;2.70;;;15.00;93.70;;;;;;5058652;28;20214;-69
2021/05/26 05:34:12;;;;;;;3.15;2.95;;;14.90;94.00;;;;;;5057968;28;20226;-66
2021/05/26 05:36:39;;;;;;;3.00;2.90;;;15.00;93.70;;;;;;5056287;28;20195;-66
2021/05/26 05:39:06;;;;;;;2.50;2.40;;;14.80;93.80;;;;;;5056001;28;20467;-67
2021/05/26 05:41:33;;;;;;;3.00;2.80;;;14.70;94.10;;;;;;5057392;28;20235;-68
2021/05/26 05:44:00;;;;;;;2.88;2.78;;;14.40;94.60;;;;;;5057954;28;20195;-67
2021/05/26 05:46:27;;;;;;;3.28;3.05;;;14.30;95.40;;;;;;5053916;28;20203;-66
2021/05/26 05:48:58;;;;;;;4.72;3.35;;;14.10;95.40;;;;;;5056869;28;20307;-65
2021/05/26 05:51:28;;;;;;;5.20;2.90;;;14.10;95.90;;;;;;5047664;28;20208;-65
2021/05/26 05:53:55;;;;;;;2.95;2.40;;;14.10;95.90;;;;;;5043811;28;20214;-67
2021/05/26 05:56:22;;;;;;;6.25;3.33;;;14.30;96.10;;;;;;5039424;28;20212;-67
2021/05/26 05:58:50;;;;;;;2.65;2.45;;;14.50;95.60;;;;;;5055149;28;20209;-66
2021/05/26 06:01:17;;;;;;;8.68;2.85;;;15.00;95.60;;;;;;5056788;28;20553;-66
2021/05/26 06:03:44;;;;;;;3.30;3.20;;;15.60;94.30;;;;;;5056559;28;20292;-66
2021/05/26 06:06:11;;;;;;;4.10;3.80;;;15.90;92.50;;;;;;5050098;28;20508;-65
2021/05/26 06:08:38;;;;;;;3.70;3.50;;;16.70;92.60;;;;;;5051317;28;20544;-65
2021/05/26 06:11:07;;;;;;;4.77;3.60;;;17.00;92.10;;;;;;5057577;28;20454;-66
2021/05/26 06:13:38;;;;;;;3.90;3.60;;;17.20;91.90;;;;;;5057697;28;20422;-66
2021/05/26 06:16:05;;;;;;;4.90;4.60;;;17.50;91.30;;;;;;5042261;28;20415;-68
2021/05/26 06:18:32;;;;;;;4.30;4.03;;;17.80;90.90;;;;;;5049057;28;20447;-66
2021/05/26 06:20:59;;;;;;;4.33;4.07;;;17.80;90.40;;;;;;5045283;28;20495;-67
2021/05/26 06:23:27;;;;;;;4.93;4.70;;;17.80;89.80;;;;;;5049992;28;20477;-66
2021/05/26 06:25:54;;;;;;;7.20;4.90;;;18.10;89.10;;;;;;5041070;28;20470;-67
2021/05/26 06:28:21;;;;;;;3.50;3.40;;;18.40;87.10;;;;;;5051405;28;20425;-66
2021/05/26 06:30:48;;;;;;;5.07;4.50;;;18.90;86.70;;;;;;5051534;28;20459;-66
2021/05/26 06:33:15;;;;;;;4.30;4.00;;;19.20;86.30;;;;;;5057387;28;20502;-66
2021/05/26 06:35:42;;;;;;;4.90;4.60;;;19.20;83.50;;;;;;5057460;28;20448;-67
2021/05/26 06:38:09;;;;;;;4.63;4.20;;;19.20;82.70;;;;;;5052937;28;20499;-68
2021/05/26 06:40:36;;;;;;;4.70;4.50;;;19.40;80.50;;;;;;5049249;28;20472;-66
2021/05/26 06:43:04;;;;;;;5.27;4.97;;;19.60;78.00;;;;;;5056077;28;20443;-66
2021/05/26 06:45:31;;;;;;;5.03;4.73;;;19.60;78.50;;;;;;5055118;28;20433;-67
2021/05/26 06:47:58;;;;;;;5.43;4.20;;;20.00;77.80;;;;;;5046552;28;20461;-67
2021/05/26 06:50:25;;;;;;;4.70;4.30;;;19.80;77.20;;;;;;5046252;28;20451;-70
2021/05/26 06:52:52;;;;;;;4.00;3.90;;;20.20;76.40;;;;;;5046837;28;20720;-67
2021/05/26 06:55:20;;;;;;;5.43;4.93;;;21.10;71.80;;;;;;5053545;28;20540;-67
2021/05/26 06:57:47;;;;;;;4.77;4.57;;;22.30;66.40;;;;;;5041740;28;20417;-68
2021/05/26 07:00:15;;;;;;;4.20;4.10;;;22.40;63.00;;;;;;5044821;28;20444;-67
2021/05/26 07:02:42;;;;;;;4.60;4.40;;;21.70;63.60;;;;;;5047879;28;20525;-69
2021/05/26 07:05:10;;;;;;;4.30;4.10;;;21.50;64.00;;;;;;5046365;28;20441;-67
2021/05/26 07:07:37;;;;;;;5.33;4.93;;;22.30;62.50;;;;;;5046380;28;20422;-67
2021/05/26 07:10:05;;;;;;;5.83;5.37;;;23.10;60.00;;;;;;5057503;28;20586;-68
2021/05/26 07:12:33;;;;;;;4.70;4.50;;;23.50;57.50;;;;;;5056110;28;20773;-69
2021/05/26 07:15:00;;;;;;;4.70;4.50;;;23.20;57.20;;;;;;5057299;28;20437;-70
2021/05/26 07:17:27;;;;;;;5.10;4.80;;;23.40;55.60;;;;;;5056456;28;20497;-68
2021/05/26 07:19:54;;;;;;;4.60;4.50;;;24.00;53.80;;;;;;5057283;28;20427;-66
2021/05/26 07:22:21;;;;;;;4.90;4.50;;;23.40;54.90;;;;;;5056571;28;20449;-67
2021/05/26 07:24:48;;;;;;;6.53;4.90;;;23.10;54.30;;;;;;5056871;28;20449;-67
2021/05/26 07:27:16;;;;;;;4.80;4.60;;;22.40;56.40;;;;;;5057352;28;20437;-67
2021/05/26 07:29:43;;;;;;;5.07;4.87;;;22.70;56.10;;;;;;5056613;28;20477;-68
2021/05/26 07:32:10;;;;;;;5.57;5.27;;;23.10;56.00;;;;;;5056946;28;20686;-67
2021/05/26 07:34:37;;;;;;;5.20;4.90;;;24.30;53.70;;;;;;5056035;28;20765;-66
2021/05/26 07:37:04;;;;;;;5.60;5.20;;;23.90;54.10;;;;;;5056585;28;20457;-67
2021/05/26 07:39:35;;;;;;;5.90;4.50;;;23.60;54.90;;;;;;5056270;28;20487;-66
2021/05/26 07:42:08;;;;;;;5.27;4.90;;;23.10;55.50;;;;;;5056830;28;20445;-67
2021/05/26 07:44:35;;;;;;;4.67;4.40;;;22.00;55.90;;;;;;5060449;28;20517;-67
2021/05/26 07:47:02;;;;;;;5.40;5.10;;;21.40;57.20;;;;;;5060117;28;20445;-67
2021/05/26 07:49:29;;;;;;;5.07;4.77;;;21.60;57.60;;;;;;5060553;28;20485;-67
2021/05/26 07:52:02;;;;;;;4.57;4.37;;;21.90;57.20;;;;;;5060249;28;20443;-66
2021/05/26 07:54:30;;;;;;;4.70;4.40;;;22.20;57.10;;;;;;5060574;28;20525;-67
2021/05/26 07:56:58;;;;;;;4.47;4.27;;;22.40;57.00;;;;;;5060634;28;20442;-67
2021/05/26 07:59:26;;;;;;;4.67;4.37;;;22.30;56.40;;;;;;5060033;28;20424;-67
2021/05/26 08:01:53;;;;;;;5.17;4.77;;;22.60;56.40;;;;;;5060409;28;20421;-67
2021/05/26 08:04:20;;;;;;;4.33;4.13;;;22.70;56.90;;;;;;5060666;28;20520;-68
2021/05/26 08:06:47;;;;;;;4.63;4.33;;;22.50;55.30;;;;;;5092460;28;20441;-68
2021/05/26 08:09:14;;;;;;;5.30;4.90;;;22.70;55.70;;;;;;5059853;28;20513;-70
2021/05/26 08:11:42;;;;;;;5.13;4.83;;;22.50;55.00;;;;;;5059895;28;20508;-71
2021/05/26 08:14:09;;;;;;;5.50;5.20;;;22.70;54.80;;;;;;5059324;28;20483;-69
2021/05/26 08:16:36;;;;;;;5.17;4.87;;;22.90;55.30;;;;;;5052938;28;20448;-67
2021/05/26 08:19:03;;;;;;;4.73;4.53;;;23.20;54.00;;;;;;5056544;28;20495;-69
2021/05/26 08:21:31;;;;;;;4.90;4.70;;;23.50;54.10;;;;;;5059739;28;20428;-67
2021/05/26 08:23:58;;;;;;;6.33;4.77;;;23.50;53.70;;;;;;5059976;28;20451;-72
2021/05/26 08:26:25;;;;;;;4.87;4.60;;;23.20;54.20;;;;;;5058751;28;20486;-71
2021/05/26 08:28:53;;;;;;;10.53;4.70;;;23.30;53.70;;;;;;5051073;28;20500;-71
2021/05/26 08:31:21;;;;;;;5.37;4.97;;;23.70;52.80;;;;;;5058416;28;20670;-71
2021/05/26 08:33:48;;;;;;;6.03;5.70;;;24.10;52.30;;;;;;5060031;28;20443;-68
2021/05/26 08:36:16;;;;;;;5.00;4.77;;;24.70;51.60;;;;;;5059675;28;20408;-67
2021/05/26 08:38:43;;;;;;;5.43;5.13;;;24.70;50.10;;;;;;5058501;28;20482;-69
2021/05/26 08:41:11;;;;;;;5.57;5.27;;;26.50;48.50;;;;;;5059176;28;20459;-67
2021/05/26 08:43:40;;;;;;;7.80;5.63;;;27.30;46.50;;;;;;5059077;28;20623;-68
2021/05/26 08:46:09;;;;;;;7.10;6.40;;;29.10;43.50;;;;;;5054577;28;20776;-69
2021/05/26 08:48:37;;;;;;;5.73;5.53;;;30.90;41.10;;;;;;5055621;28;20442;-68
2021/05/26 08:51:06;;;;;;;6.30;6.10;;;32.30;37.90;;;;;;5050748;28;20477;-69
2021/05/26 08:53:34;;;;;;;6.60;6.30;;;32.60;36.90;;;;;;5055518;28;20460;-69
2021/05/26 08:56:02;;;;;;;6.43;6.03;;;32.40;34.90;;;;;;5049373;28;20515;-67
2021/05/26 08:58:29;;;;;;;6.43;6.10;;;30.80;37.20;;;;;;5058004;28;20437;-67
2021/05/26 09:00:56;;;;;;;6.33;6.03;;;30.00;36.80;;;;;;5041340;28;20503;-68
2021/05/26 09:03:23;;;;;;;6.67;6.27;;;29.70;37.50;;;;;;5040286;28;20445;-69
2021/05/26 09:05:52;;;;;;;6.50;5.90;;;29.20;38.70;;;;;;5046349;28;20497;-68
2021/05/26 09:08:21;;;;;;;5.90;5.60;;;28.20;40.00;;;;;;5058873;28;20417;-70
2021/05/26 09:10:55;;;;;;;5.80;5.40;;;26.60;42.00;;;;;;5055318;28;20452;-69
2021/05/26 09:13:32;;;;;;;6.20;5.77;;;26.10;43.60;;;;;;5050557;28;20441;-68
2021/05/26 09:16:00;;;;;;;5.70;5.40;;;27.60;42.40;;;;;;5059164;28;20429;-68
2021/05/26 09:18:27;;;;;;;5.83;5.63;;;28.90;39.90;;;;;;5053018;28;20447;-68
2021/05/26 09:20:57;;;;;;;7.07;6.57;;;27.90;40.50;;;;;;5058502;28;20445;-68
2021/05/26 09:23:29;;;;;;;5.90;5.60;;;27.20;41.90;;;;;;5055324;28;20467;-70
2021/05/26 09:26:03;;;;;;;6.30;5.80;;;26.60;42.60;;;;;;5081282;28;20415;-67
2021/05/26 09:28:35;;;;;;;6.23;5.73;;;25.50;43.90;;;;;;5057943;28;20685;-68
2021/05/26 09:31:10;;;;;;;6.07;5.77;;;24.10;47.10;;;;;;5057406;28;20455;-70
2021/05/26 09:33:45;;;;;;;5.10;4.90;;;23.70;48.20;;;;;;5053912;28;20455;-68
2021/05/26 09:36:26;;;;;;;6.40;5.80;;;22.90;48.50;;;;;;5055583;28;20516;-67
2021/05/26 09:39:03;;;;;;;5.33;5.03;;;23.00;49.90;;;;;;5052484;28;20441;-68
2021/05/26 09:41:33;;;;;;;6.00;5.57;;;23.10;49.50;;;;;;5057650;28;20475;-70
2021/05/26 09:44:11;;;;;;;5.93;5.43;;;22.50;50.30;;;;;;5050624;28;20486;-71
2021/05/26 09:46:43;;;;;;;6.33;4.90;;;22.50;51.30;;;;;;5037655;28;20415;-69
2021/05/26 09:49:18;;;;;;;6.63;5.07;;;22.20;51.10;;;;;;5046634;28;20426;-73
2021/05/26 09:51:50;;;;;;;5.10;4.90;;;21.90;51.40;;;;;;5056972;28;20494;-68
2021/05/26 09:54:25;;;;;;;5.07;4.87;;;22.40;52.70;;;;;;5038384;28;20445;-70
2021/05/26 09:57:06;;;;;;;5.87;5.43;;;22.60;51.10;;;;;;5039617;28;20444;-69
2021/05/26 09:59:35;;;;;;;6.10;5.80;;;23.20;50.60;;;;;;5048143;28;20444;-70
2021/05/26 10:02:10;;;;;;;6.10;5.80;;;23.40;49.30;;;;;;5083619;28;21154;-69
2021/05/26 10:04:41;;;;;;;5.67;5.17;;;23.60;48.00;;;;;;5046959;28;20496;-72
2021/05/26 10:07:10;;;;;;;5.60;5.20;;;23.00;49.70;;;;;;5044106;28;20437;-71
2021/05/26 10:09:38;;;;;;;5.90;5.50;;;22.80;50.40;;;;;;5058384;28;20444;-69
2021/05/26 10:12:06;;;;;;;6.63;6.23;;;22.20;51.10;;;;;;5057848;28;20461;-72
2021/05/26 10:14:36;;;;;;;7.73;6.80;;;21.40;52.00;;;;;;5057578;28;20553;-68
2021/05/26 10:17:08;;;;;;;5.70;5.30;;;20.70;53.40;;;;;;5052140;28;20420;-69
2021/05/26 10:19:36;;;;;;;5.67;5.33;;;20.60;54.50;;;;;;5057516;28;20442;-72
2021/05/26 10:22:04;;;;;;;6.13;5.83;;;20.80;55.30;;;;;;5057254;28;20564;-70
2021/05/26 10:24:32;;;;;;;6.97;5.00;;;20.80;54.80;;;;;;5056338;28;20742;-69
2021/05/26 10:27:00;;;;;;;5.77;5.47;;;20.80;55.40;;;;;;5052528;28;20425;-73
2021/05/26 10:29:30;;;;;;;5.43;5.23;;;20.70;55.50;;;;;;5055037;28;20457;-69
2021/05/26 10:32:06;;;;;;;5.00;4.80;;;20.50;55.40;;;;;;5057486;28;20450;-72
2021/05/26 10:34:42;;;;;;;5.87;5.47;;;20.50;55.60;;;;;;5057123;28;20458;-73
2021/05/26 10:37:11;;;;;;;5.17;4.87;;;20.40;56.70;;;;;;5057013;28;20468;-68
2021/05/26 10:39:39;;;;;;;5.00;4.60;;;20.30;57.20;;;;;;5056103;28;20502;-70
2021/05/26 10:42:33;;;;;;;4.90;4.60;;;20.20;57.10;;;;;;5057429;28;20457;-70
2021/05/26 10:45:07;;;;;;;6.50;5.97;;;20.30;56.60;;;;;;5050720;28;20457;-68
2021/05/26 10:47:37;;;;;;;5.40;5.03;;;20.30;57.10;;;;;;5056904;28;20416;-68
2021/05/26 10:50:24;;;;;;;5.10;4.90;;;20.50;56.70;;;;;;5044683;28;20460;-70
2021/05/26 10:52:54;;;;;;;5.93;5.53;;;20.80;56.30;;;;;;5057114;28;20426;-69
2021/05/26 10:55:36;;;;;;;6.37;5.87;;;21.00;56.30;;;;;;5057121;28;20592;-71
2021/05/26 10:58:19;;;;;;;5.60;5.20;;;21.00;55.20;;;;;;5058065;28;20479;-71
2021/05/26 11:01:09;;;;;;;4.80;4.50;;;20.90;55.80;;;;;;5056898;28;20454;-71
2021/05/26 11:03:41;;;;;;;6.30;5.80;;;20.90;56.00;;;;;;5056479;28;20411;-70
2021/05/26 11:06:19;;;;;;;6.17;5.57;;;21.00;55.50;;;;;;5057399;28;20468;-71
2021/05/26 11:08:51;;;;;;;5.87;5.50;;;21.20;55.30;;;;;;5057044;28;20544;-70
2021/05/26 11:11:24;;;;;;;6.60;5.50;;;21.10;54.80;;;;;;5056627;28;20462;-69
2021/05/26 11:14:04;;;;;;;4.90;4.70;;;21.30;54.80;;;;;;5056656;28;20420;-73
2021/05/26 11:16:41;;;;;;;5.77;5.20;;;21.70;54.00;;;;;;5039984;28;20447;-72
2021/05/26 11:19:12;;;;;;;5.77;5.37;;;21.90;53.40;;;;;;5045598;28;20607;-69
2021/05/26 11:21:41;;;;;;;5.87;5.37;;;22.10;53.30;;;;;;5061243;28;20451;-68
2021/05/26 11:24:09;;;;;;;5.67;5.13;;;22.00;53.20;;;;;;5060674;28;20686;-71
2021/05/26 11:26:37;;;;;;;5.93;5.30;;;21.70;54.50;;;;;;5058546;28;20835;-73
2021/05/26 11:29:04;;;;;;;6.40;5.73;;;21.20;54.90;;;;;;5060953;28;20417;-70
2021/05/26 11:31:32;;;;;;;5.67;4.97;;;21.00;55.10;;;;;;5055569;28;20484;-68
2021/05/26 11:33:59;;;;;;;5.03;4.77;;;20.90;54.70;;;;;;5057660;28;20439;-71
2021/05/26 11:36:44;;;;;;;4.90;4.60;;;20.70;55.30;;;;;;5056785;28;20776;-71
2021/05/26 11:39:31;;;;;;;5.00;4.80;;;20.30;56.40;;;;;;5054809;28;20513;-69
2021/05/26 11:42:14;;;;;;;5.57;4.80;;;20.40;57.00;;;;;;5054863;28;20785;-70
2021/05/26 11:44:53;;;;;;;6.03;4.47;;;20.80;56.70;;;;;;5093328;28;20472;-69
2021/05/26 11:47:43;;;;;;;5.37;5.07;;;21.10;56.30;;;;;;5060184;28;20507;-70
2021/05/26 11:50:13;;;;;;;4.83;4.63;;;21.30;56.00;;;;;;5047660;28;20444;-71
2021/05/26 11:52:47;;;;;;;5.03;4.77;;;21.40;54.90;;;;;;5060237;28;20415;-70
2021/05/26 11:55:16;;;;;;;5.70;5.30;;;21.40;54.20;;;;;;5048265;28;20443;-70
2021/05/26 11:57:46;;;;;;;5.00;4.47;;;21.50;53.60;;;;;;5060791;28;20413;-70
2021/05/26 12:00:25;;;;;;;4.17;3.97;;;21.60;52.80;;;;;;5048758;28;20466;-73
2021/05/26 12:02:57;;;;;;;4.43;4.23;;;21.50;50.80;;;;;;5059189;28;20734;-69
2021/05/26 12:05:47;;;;;;;5.03;4.57;;;21.50;51.10;;;;;;5048566;28;20446;-70
2021/05/26 12:08:21;;;;;;;12.60;5.10;;;21.60;51.30;;;;;;5052929;28;20486;-70
2021/05/26 12:10:53;;;;;;;4.40;4.20;;;21.60;51.30;;;;;;5060270;28;20492;-72
2021/05/26 12:13:25;;;;;;;4.93;4.60;;;21.80;51.10;;;;;;5052461;28;20748;-71
2021/05/26 12:15:53;;;;;;;8.10;5.00;;;21.60;50.80;;;;;;5059965;28;20412;-69
2021/05/26 12:18:20;;;;;;;4.50;4.20;;;21.40;51.20;;;;;;5060081;28;20488;-73
2021/05/26 12:20:50;;;;;;;4.23;4.03;;;21.50;50.90;;;;;;5050319;28;20512;-71
2021/05/26 12:23:37;;;;;;;4.60;4.40;;;21.60;50.60;;;;;;5045031;28;20418;-73
2021/05/26 12:26:25;;;;;;;5.20;4.90;;;21.60;50.50;;;;;;5048911;28;20413;-71
2021/05/26 12:28:54;;;;;;;4.40;4.10;;;21.50;49.90;;;;;;5054203;28;20461;-72
2021/05/26 12:31:23;;;;;;;4.90;4.63;;;21.30;50.30;;;;;;5047058;28;20631;-70
2021/05/26 12:33:52;;;;;;;4.83;4.50;;;21.40;50.90;;;;;;5044542;28;20468;-70
2021/05/26 12:36:24;;;;;;;5.60;5.20;;;21.20;50.10;;;;;;5059311;28;20443;-69
2021/05/26 12:39:01;;;;;;;4.60;4.40;;;21.10;50.70;;;;;;5050490;28;20676;-70
2021/05/26 12:41:33;;;;;;;4.97;4.67;;;20.90;51.80;;;;;;5057790;28;20456;-70
2021/05/26 12:44:21;;;;;;;5.03;4.63;;;20.90;52.00;;;;;;5059574;28;20407;-70
2021/05/26 12:46:53;;;;;;;5.47;5.17;;;21.30;52.10;;;;;;5044922;28;20468;-69
2021/05/26 12:49:30;;;;;;;5.37;5.07;;;21.50;51.20;;;;;;5091734;28;20476;-72
2021/05/26 12:51:59;;;;;;;5.30;4.90;;;21.70;51.20;;;;;;5058730;28;20465;-70
2021/05/26 12:54:27;;;;;;;5.20;4.93;;;21.80;50.70;;;;;;5059431;28;20426;-70
2021/05/26 12:57:25;;;;;;;5.90;5.43;;;21.60;51.40;;;;;;5057583;28;20417;-71
2021/05/26 12:59:58;;;;;;;5.57;5.00;;;21.60;51.90;;;;;;5059349;28;20420;-72
2021/05/26 13:02:33;;;;;;;5.57;5.07;;;21.20;52.10;;;;;;5056463;28;20515;-71